sensor_id;sensor_type;location;lat;lon;timestamp;P1;durP1;ratioP1;P2;durP2;ratioP2
18732;SDS011;9495;51.210;2.934;2023-03-01T00:01:24;10.13;;;7.20;;
18732;SDS011;9495;51.210;2.934;2023-03-01T00:03:54;10.43;;;7.23;;
18732;SDS011;9495;51.210;2.934;2023-03-01T00:06:24;11.50;;;7.40;;
18732;SDS011;9495;51.210;2.934;2023-03-01T00:08:54;9.37;;;6.80;;
18732;SDS011;9495;51.210;2.934;2023-03-01T00:11:23;7.93;;;7.03;;
18732;SDS011;9495;51.210;2.934;2023-03-01T00:13:53;10.43;;;7.57;;
18732;SDS011;9495;51.210;2.934;2023-03-01T00:16:24;9.00;;;7.70;;
18732;SDS011;9495;51.210;2.934;2023-03-01T00:18:55;13.50;;;8.10;;
18732;SDS011;9495;51.210;2.934;2023-03-01T00:21:24;9.63;;;7.23;;
18732;SDS011;9495;51.210;2.934;2023-03-01T00:23:53;10.00;;;7.80;;
18732;SDS011;9495;51.210;2.934;2023-03-01T00:26:23;10.70;;;7.90;;
18732;SDS011;9495;51.210;2.934;2023-03-01T00:28:52;10.37;;;7.63;;
18732;SDS011;9495;51.210;2.934;2023-03-01T00:31:22;7.90;;;7.10;;
18732;SDS011;9495;51.210;2.934;2023-03-01T00:33:53;9.57;;;7.80;;
18732;SDS011;9495;51.210;2.934;2023-03-01T00:36:24;10.83;;;7.60;;
18732;SDS011;9495;51.210;2.934;2023-03-01T00:38:54;10.37;;;7.90;;
18732;SDS011;9495;51.210;2.934;2023-03-01T00:41:23;12.87;;;8.30;;
18732;SDS011;9495;51.210;2.934;2023-03-01T00:43:53;9.27;;;8.00;;
18732;SDS011;9495;51.210;2.934;2023-03-01T00:46:22;12.10;;;8.43;;
18732;SDS011;9495;51.210;2.934;2023-03-01T00:48:53;14.33;;;8.07;;
18732;SDS011;9495;51.210;2.934;2023-03-01T00:51:22;9.50;;;7.23;;
18732;SDS011;9495;51.210;2.934;2023-03-01T00:53:53;11.90;;;7.57;;
18732;SDS011;9495;51.210;2.934;2023-03-01T00:56:23;10.33;;;7.67;;
18732;SDS011;9495;51.210;2.934;2023-03-01T00:58:52;10.50;;;6.97;;
18732;SDS011;9495;51.210;2.934;2023-03-01T01:01:21;10.53;;;7.20;;
18732;SDS011;9495;51.210;2.934;2023-03-01T01:03:56;10.00;;;7.13;;
18732;SDS011;9495;51.210;2.934;2023-03-01T01:06:26;9.90;;;8.00;;
18732;SDS011;9495;51.210;2.934;2023-03-01T01:08:57;9.17;;;7.73;;
18732;SDS011;9495;51.210;2.934;2023-03-01T01:11:26;8.67;;;7.50;;
18732;SDS011;9495;51.210;2.934;2023-03-01T01:13:56;13.87;;;8.33;;
18732;SDS011;9495;51.210;2.934;2023-03-01T01:16:25;11.30;;;8.20;;
18732;SDS011;9495;51.210;2.934;2023-03-01T01:18:57;11.10;;;8.57;;
18732;SDS011;9495;51.210;2.934;2023-03-01T01:21:26;12.47;;;7.73;;
18732;SDS011;9495;51.210;2.934;2023-03-01T01:23:54;11.93;;;8.70;;
18732;SDS011;9495;51.210;2.934;2023-03-01T01:26:24;10.70;;;8.37;;
18732;SDS011;9495;51.210;2.934;2023-03-01T01:28:54;12.63;;;9.60;;
18732;SDS011;9495;51.210;2.934;2023-03-01T01:31:22;13.53;;;10.13;;
18732;SDS011;9495;51.210;2.934;2023-03-01T01:33:52;10.67;;;9.57;;
18732;SDS011;9495;51.210;2.934;2023-03-01T01:36:23;14.60;;;9.90;;
18732;SDS011;9495;51.210;2.934;2023-03-01T01:38:52;14.07;;;10.40;;
18732;SDS011;9495;51.210;2.934;2023-03-01T01:41:20;14.60;;;11.70;;
18732;SDS011;9495;51.210;2.934;2023-03-01T01:43:50;12.50;;;10.87;;
18732;SDS011;9495;51.210;2.934;2023-03-01T01:46:39;18.93;;;12.10;;
18732;SDS011;9495;51.210;2.934;2023-03-01T01:49:12;15.13;;;12.23;;
18732;SDS011;9495;51.210;2.934;2023-03-01T01:51:55;15.87;;;13.97;;
18732;SDS011;9495;51.210;2.934;2023-03-01T01:54:30;19.87;;;15.57;;
18732;SDS011;9495;51.210;2.934;2023-03-01T01:57:06;18.67;;;14.47;;
18732;SDS011;9495;51.210;2.934;2023-03-01T01:59:38;21.23;;;17.07;;
18732;SDS011;9495;51.210;2.934;2023-03-01T02:02:09;19.03;;;16.17;;
18732;SDS011;9495;51.210;2.934;2023-03-01T02:04:38;20.17;;;16.57;;
18732;SDS011;9495;51.210;2.934;2023-03-01T02:07:10;20.30;;;16.90;;
18732;SDS011;9495;51.210;2.934;2023-03-01T02:09:44;21.00;;;17.40;;
18732;SDS011;9495;51.210;2.934;2023-03-01T02:12:15;20.27;;;17.70;;
18732;SDS011;9495;51.210;2.934;2023-03-01T02:14:46;20.80;;;17.53;;
18732;SDS011;9495;51.210;2.934;2023-03-01T02:17:14;25.53;;;18.63;;
18732;SDS011;9495;51.210;2.934;2023-03-01T02:19:47;23.03;;;18.37;;
18732;SDS011;9495;51.210;2.934;2023-03-01T02:22:27;21.73;;;18.20;;
18732;SDS011;9495;51.210;2.934;2023-03-01T02:25:01;24.00;;;18.90;;
18732;SDS011;9495;51.210;2.934;2023-03-01T02:27:38;21.53;;;19.10;;
18732;SDS011;9495;51.210;2.934;2023-03-01T02:32:45;23.83;;;18.23;;
18732;SDS011;9495;51.210;2.934;2023-03-01T02:35:14;23.30;;;18.77;;
18732;SDS011;9495;51.210;2.934;2023-03-01T02:37:45;23.70;;;18.30;;
18732;SDS011;9495;51.210;2.934;2023-03-01T02:40:15;24.07;;;18.20;;
18732;SDS011;9495;51.210;2.934;2023-03-01T02:42:46;24.70;;;18.83;;
18732;SDS011;9495;51.210;2.934;2023-03-01T02:45:20;25.70;;;18.30;;
18732;SDS011;9495;51.210;2.934;2023-03-01T02:47:49;25.67;;;18.23;;
18732;SDS011;9495;51.210;2.934;2023-03-01T02:50:38;23.33;;;18.63;;
18732;SDS011;9495;51.210;2.934;2023-03-01T02:53:15;22.97;;;18.50;;
18732;SDS011;9495;51.210;2.934;2023-03-01T02:55:50;25.47;;;19.13;;
18732;SDS011;9495;51.210;2.934;2023-03-01T02:58:18;25.97;;;19.00;;
18732;SDS011;9495;51.210;2.934;2023-03-01T03:00:48;25.43;;;19.90;;
18732;SDS011;9495;51.210;2.934;2023-03-01T03:03:17;26.97;;;19.70;;
18732;SDS011;9495;51.210;2.934;2023-03-01T03:05:48;26.17;;;19.07;;
18732;SDS011;9495;51.210;2.934;2023-03-01T03:08:17;26.40;;;20.20;;
18732;SDS011;9495;51.210;2.934;2023-03-01T03:10:50;24.90;;;19.27;;
18732;SDS011;9495;51.210;2.934;2023-03-01T03:13:19;24.57;;;18.80;;
18732;SDS011;9495;51.210;2.934;2023-03-01T03:15:49;24.77;;;19.03;;
18732;SDS011;9495;51.210;2.934;2023-03-01T03:18:18;29.33;;;19.37;;
18732;SDS011;9495;51.210;2.934;2023-03-01T03:20:50;24.33;;;19.53;;
18732;SDS011;9495;51.210;2.934;2023-03-01T03:23:19;25.43;;;19.80;;
18732;SDS011;9495;51.210;2.934;2023-03-01T03:25:48;31.50;;;20.40;;
18732;SDS011;9495;51.210;2.934;2023-03-01T03:28:17;26.20;;;20.20;;
18732;SDS011;9495;51.210;2.934;2023-03-01T03:30:45;25.60;;;19.47;;
18732;SDS011;9495;51.210;2.934;2023-03-01T03:33:16;27.87;;;19.73;;
18732;SDS011;9495;51.210;2.934;2023-03-01T03:35:45;27.63;;;19.90;;
18732;SDS011;9495;51.210;2.934;2023-03-01T03:38:15;27.07;;;20.90;;
18732;SDS011;9495;51.210;2.934;2023-03-01T03:40:45;29.53;;;21.37;;
18732;SDS011;9495;51.210;2.934;2023-03-01T03:43:15;28.80;;;21.23;;
18732;SDS011;9495;51.210;2.934;2023-03-01T03:45:46;28.17;;;21.57;;
18732;SDS011;9495;51.210;2.934;2023-03-01T03:48:17;28.23;;;21.30;;
18732;SDS011;9495;51.210;2.934;2023-03-01T03:50:47;28.93;;;21.70;;
18732;SDS011;9495;51.210;2.934;2023-03-01T03:53:17;26.40;;;20.23;;
18732;SDS011;9495;51.210;2.934;2023-03-01T03:55:46;28.03;;;21.17;;
18732;SDS011;9495;51.210;2.934;2023-03-01T03:58:16;25.33;;;19.57;;
18732;SDS011;9495;51.210;2.934;2023-03-01T04:00:46;27.40;;;20.27;;
18732;SDS011;9495;51.210;2.934;2023-03-01T04:03:19;25.20;;;19.40;;
18732;SDS011;9495;51.210;2.934;2023-03-01T04:05:48;29.10;;;19.60;;
18732;SDS011;9495;51.210;2.934;2023-03-01T04:08:17;26.30;;;20.00;;
18732;SDS011;9495;51.210;2.934;2023-03-01T04:10:48;29.43;;;19.87;;
18732;SDS011;9495;51.210;2.934;2023-03-01T04:13:19;32.40;;;20.57;;
18732;SDS011;9495;51.210;2.934;2023-03-01T04:15:48;28.13;;;19.83;;
18732;SDS011;9495;51.210;2.934;2023-03-01T04:18:19;26.60;;;19.73;;
18732;SDS011;9495;51.210;2.934;2023-03-01T04:20:49;28.23;;;19.70;;
18732;SDS011;9495;51.210;2.934;2023-03-01T04:23:21;28.53;;;19.93;;
18732;SDS011;9495;51.210;2.934;2023-03-01T04:25:51;28.03;;;21.30;;
18732;SDS011;9495;51.210;2.934;2023-03-01T04:28:21;28.93;;;20.57;;
18732;SDS011;9495;51.210;2.934;2023-03-01T04:30:51;28.57;;;20.03;;
18732;SDS011;9495;51.210;2.934;2023-03-01T04:33:22;25.93;;;19.23;;
18732;SDS011;9495;51.210;2.934;2023-03-01T04:35:51;25.03;;;18.87;;
18732;SDS011;9495;51.210;2.934;2023-03-01T04:38:20;24.97;;;18.80;;
18732;SDS011;9495;51.210;2.934;2023-03-01T04:40:49;23.77;;;18.63;;
18732;SDS011;9495;51.210;2.934;2023-03-01T04:43:17;27.50;;;18.30;;
18732;SDS011;9495;51.210;2.934;2023-03-01T04:45:46;22.70;;;17.80;;
18732;SDS011;9495;51.210;2.934;2023-03-01T04:48:14;23.60;;;18.37;;
18732;SDS011;9495;51.210;2.934;2023-03-01T04:50:44;26.77;;;19.00;;
18732;SDS011;9495;51.210;2.934;2023-03-01T04:53:13;23.60;;;17.37;;
18732;SDS011;9495;51.210;2.934;2023-03-01T04:55:41;21.53;;;17.43;;
18732;SDS011;9495;51.210;2.934;2023-03-01T04:58:10;25.03;;;18.03;;
18732;SDS011;9495;51.210;2.934;2023-03-01T05:00:38;28.07;;;17.73;;
18732;SDS011;9495;51.210;2.934;2023-03-01T05:03:07;24.17;;;18.60;;
18732;SDS011;9495;51.210;2.934;2023-03-01T05:05:36;24.00;;;17.77;;
18732;SDS011;9495;51.210;2.934;2023-03-01T05:08:08;26.90;;;18.80;;
18732;SDS011;9495;51.210;2.934;2023-03-01T05:10:44;26.03;;;19.03;;
18732;SDS011;9495;51.210;2.934;2023-03-01T05:13:13;27.23;;;19.37;;
18732;SDS011;9495;51.210;2.934;2023-03-01T05:15:47;27.73;;;21.60;;
18732;SDS011;9495;51.210;2.934;2023-03-01T05:18:16;34.37;;;21.47;;
18732;SDS011;9495;51.210;2.934;2023-03-01T05:20:45;31.10;;;21.73;;
18732;SDS011;9495;51.210;2.934;2023-03-01T05:23:14;34.00;;;24.13;;
18732;SDS011;9495;51.210;2.934;2023-03-01T05:25:43;30.47;;;21.53;;
18732;SDS011;9495;51.210;2.934;2023-03-01T05:28:12;27.27;;;21.60;;
18732;SDS011;9495;51.210;2.934;2023-03-01T05:30:41;28.07;;;21.43;;
18732;SDS011;9495;51.210;2.934;2023-03-01T05:33:10;27.03;;;20.53;;
18732;SDS011;9495;51.210;2.934;2023-03-01T05:35:40;26.70;;;20.13;;
18732;SDS011;9495;51.210;2.934;2023-03-01T05:38:09;28.07;;;20.13;;
18732;SDS011;9495;51.210;2.934;2023-03-01T05:40:41;30.73;;;20.90;;
18732;SDS011;9495;51.210;2.934;2023-03-01T05:43:10;27.63;;;20.93;;
18732;SDS011;9495;51.210;2.934;2023-03-01T05:45:40;28.37;;;18.97;;
18732;SDS011;9495;51.210;2.934;2023-03-01T05:48:09;27.33;;;19.90;;
18732;SDS011;9495;51.210;2.934;2023-03-01T05:50:39;24.77;;;18.37;;
18732;SDS011;9495;51.210;2.934;2023-03-01T05:53:09;24.07;;;17.83;;
18732;SDS011;9495;51.210;2.934;2023-03-01T05:55:41;24.07;;;17.53;;
18732;SDS011;9495;51.210;2.934;2023-03-01T05:58:11;23.07;;;17.23;;
18732;SDS011;9495;51.210;2.934;2023-03-01T06:00:41;24.43;;;17.50;;
18732;SDS011;9495;51.210;2.934;2023-03-01T06:03:10;26.77;;;17.43;;
18732;SDS011;9495;51.210;2.934;2023-03-01T06:05:41;19.03;;;14.93;;
18732;SDS011;9495;51.210;2.934;2023-03-01T06:08:10;21.60;;;16.00;;
18732;SDS011;9495;51.210;2.934;2023-03-01T06:10:40;23.90;;;15.53;;
18732;SDS011;9495;51.210;2.934;2023-03-01T06:13:09;21.70;;;16.47;;
18732;SDS011;9495;51.210;2.934;2023-03-01T06:15:38;20.03;;;15.57;;
18732;SDS011;9495;51.210;2.934;2023-03-01T06:18:06;22.57;;;16.17;;
18732;SDS011;9495;51.210;2.934;2023-03-01T06:20:34;22.13;;;16.47;;
18732;SDS011;9495;51.210;2.934;2023-03-01T06:23:03;27.13;;;16.90;;
18732;SDS011;9495;51.210;2.934;2023-03-01T06:25:31;24.30;;;16.50;;
18732;SDS011;9495;51.210;2.934;2023-03-01T06:28:01;24.10;;;16.67;;
18732;SDS011;9495;51.210;2.934;2023-03-01T06:30:31;25.70;;;18.10;;
18732;SDS011;9495;51.210;2.934;2023-03-01T06:32:59;24.17;;;16.43;;
18732;SDS011;9495;51.210;2.934;2023-03-01T06:35:28;23.13;;;16.73;;
18732;SDS011;9495;51.210;2.934;2023-03-01T06:37:57;24.17;;;16.47;;
18732;SDS011;9495;51.210;2.934;2023-03-01T06:40:27;27.50;;;16.10;;
18732;SDS011;9495;51.210;2.934;2023-03-01T06:42:55;25.47;;;16.77;;
18732;SDS011;9495;51.210;2.934;2023-03-01T06:45:26;22.03;;;16.30;;
18732;SDS011;9495;51.210;2.934;2023-03-01T06:48:01;22.13;;;15.00;;
18732;SDS011;9495;51.210;2.934;2023-03-01T06:50:30;18.30;;;14.00;;
18732;SDS011;9495;51.210;2.934;2023-03-01T06:52:59;20.90;;;13.43;;
18732;SDS011;9495;51.210;2.934;2023-03-01T06:55:28;20.87;;;14.33;;
18732;SDS011;9495;51.210;2.934;2023-03-01T06:57:57;23.33;;;14.40;;
18732;SDS011;9495;51.210;2.934;2023-03-01T07:00:27;18.63;;;13.27;;
18732;SDS011;9495;51.210;2.934;2023-03-01T07:02:58;24.53;;;13.60;;
18732;SDS011;9495;51.210;2.934;2023-03-01T07:05:28;21.23;;;12.50;;
18732;SDS011;9495;51.210;2.934;2023-03-01T07:07:57;22.03;;;12.63;;
18732;SDS011;9495;51.210;2.934;2023-03-01T07:10:25;17.43;;;11.93;;
18732;SDS011;9495;51.210;2.934;2023-03-01T07:12:54;17.00;;;12.03;;
18732;SDS011;9495;51.210;2.934;2023-03-01T07:15:24;16.63;;;10.97;;
18732;SDS011;9495;51.210;2.934;2023-03-01T07:17:54;19.37;;;11.00;;
18732;SDS011;9495;51.210;2.934;2023-03-01T07:20:24;20.67;;;11.30;;
18732;SDS011;9495;51.210;2.934;2023-03-01T07:22:53;17.73;;;10.83;;
18732;SDS011;9495;51.210;2.934;2023-03-01T07:25:22;19.07;;;11.87;;
18732;SDS011;9495;51.210;2.934;2023-03-01T07:27:51;15.93;;;11.17;;
18732;SDS011;9495;51.210;2.934;2023-03-01T07:30:21;16.37;;;10.50;;
18732;SDS011;9495;51.210;2.934;2023-03-01T07:32:54;17.23;;;10.23;;
18732;SDS011;9495;51.210;2.934;2023-03-01T07:35:23;13.93;;;9.90;;
18732;SDS011;9495;51.210;2.934;2023-03-01T07:37:53;17.53;;;10.17;;
18732;SDS011;9495;51.210;2.934;2023-03-01T07:40:21;15.67;;;9.50;;
18732;SDS011;9495;51.210;2.934;2023-03-01T07:42:56;16.03;;;10.37;;
18732;SDS011;9495;51.210;2.934;2023-03-01T07:45:25;22.20;;;10.83;;
18732;SDS011;9495;51.210;2.934;2023-03-01T07:47:55;20.50;;;10.17;;
18732;SDS011;9495;51.210;2.934;2023-03-01T07:50:24;21.97;;;11.47;;
18732;SDS011;9495;51.210;2.934;2023-03-01T07:52:52;15.57;;;10.70;;
18732;SDS011;9495;51.210;2.934;2023-03-01T07:55:20;19.20;;;9.53;;
18732;SDS011;9495;51.210;2.934;2023-03-01T07:57:49;15.17;;;10.23;;
18732;SDS011;9495;51.210;2.934;2023-03-01T08:00:17;14.57;;;9.90;;
18732;SDS011;9495;51.210;2.934;2023-03-01T08:02:46;15.43;;;10.07;;
18732;SDS011;9495;51.210;2.934;2023-03-01T08:05:16;14.73;;;9.53;;
18732;SDS011;9495;51.210;2.934;2023-03-01T08:07:45;18.63;;;9.70;;
18732;SDS011;9495;51.210;2.934;2023-03-01T08:10:13;18.07;;;10.03;;
18732;SDS011;9495;51.210;2.934;2023-03-01T08:12:42;22.33;;;10.17;;
18732;SDS011;9495;51.210;2.934;2023-03-01T08:15:11;21.33;;;10.83;;
18732;SDS011;9495;51.210;2.934;2023-03-01T08:17:39;19.70;;;10.17;;
18732;SDS011;9495;51.210;2.934;2023-03-01T08:20:08;16.27;;;10.10;;
18732;SDS011;9495;51.210;2.934;2023-03-01T08:22:40;19.17;;;9.00;;
18732;SDS011;9495;51.210;2.934;2023-03-01T08:25:08;18.37;;;9.50;;
18732;SDS011;9495;51.210;2.934;2023-03-01T08:27:37;21.07;;;10.00;;
18732;SDS011;9495;51.210;2.934;2023-03-01T08:30:06;16.30;;;10.03;;
18732;SDS011;9495;51.210;2.934;2023-03-01T08:32:36;18.67;;;9.37;;
18732;SDS011;9495;51.210;2.934;2023-03-01T08:35:05;16.60;;;8.90;;
18732;SDS011;9495;51.210;2.934;2023-03-01T08:37:34;13.07;;;8.13;;
18732;SDS011;9495;51.210;2.934;2023-03-01T08:40:04;16.37;;;9.33;;
18732;SDS011;9495;51.210;2.934;2023-03-01T08:42:36;14.73;;;8.93;;
18732;SDS011;9495;51.210;2.934;2023-03-01T08:45:05;12.30;;;8.03;;
18732;SDS011;9495;51.210;2.934;2023-03-01T08:47:34;16.50;;;9.50;;
18732;SDS011;9495;51.210;2.934;2023-03-01T08:50:03;19.00;;;9.33;;
18732;SDS011;9495;51.210;2.934;2023-03-01T08:52:33;16.83;;;8.63;;
18732;SDS011;9495;51.210;2.934;2023-03-01T08:55:01;17.77;;;8.23;;
18732;SDS011;9495;51.210;2.934;2023-03-01T08:57:32;12.43;;;7.77;;
18732;SDS011;9495;51.210;2.934;2023-03-01T09:00:00;13.00;;;8.20;;
18732;SDS011;9495;51.210;2.934;2023-03-01T09:02:29;11.90;;;7.33;;
18732;SDS011;9495;51.210;2.934;2023-03-01T09:04:58;11.43;;;7.67;;
18732;SDS011;9495;51.210;2.934;2023-03-01T09:07:26;13.10;;;7.30;;
18732;SDS011;9495;51.210;2.934;2023-03-01T09:09:55;11.00;;;7.13;;
18732;SDS011;9495;51.210;2.934;2023-03-01T09:12:25;11.60;;;6.70;;
18732;SDS011;9495;51.210;2.934;2023-03-01T09:14:53;12.67;;;6.80;;
18732;SDS011;9495;51.210;2.934;2023-03-01T09:17:21;8.37;;;5.50;;
18732;SDS011;9495;51.210;2.934;2023-03-01T09:19:50;7.10;;;5.47;;
18732;SDS011;9495;51.210;2.934;2023-03-01T09:22:18;8.33;;;5.77;;
18732;SDS011;9495;51.210;2.934;2023-03-01T09:24:47;10.90;;;5.00;;
18732;SDS011;9495;51.210;2.934;2023-03-01T09:27:16;7.67;;;4.70;;
18732;SDS011;9495;51.210;2.934;2023-03-01T09:29:46;6.57;;;4.03;;
18732;SDS011;9495;51.210;2.934;2023-03-01T09:32:15;6.93;;;3.60;;
18732;SDS011;9495;51.210;2.934;2023-03-01T09:34:44;8.90;;;4.07;;
18732;SDS011;9495;51.210;2.934;2023-03-01T09:37:30;5.47;;;3.83;;
18732;SDS011;9495;51.210;2.934;2023-03-01T09:39:59;8.10;;;3.47;;
18732;SDS011;9495;51.210;2.934;2023-03-01T09:42:29;5.83;;;3.30;;
18732;SDS011;9495;51.210;2.934;2023-03-01T09:45:02;9.50;;;3.50;;
18732;SDS011;9495;51.210;2.934;2023-03-01T09:47:34;11.17;;;3.20;;
18732;SDS011;9495;51.210;2.934;2023-03-01T09:50:04;5.00;;;3.03;;
18732;SDS011;9495;51.210;2.934;2023-03-01T09:52:38;5.13;;;3.17;;
18732;SDS011;9495;51.210;2.934;2023-03-01T09:55:11;7.13;;;2.90;;
18732;SDS011;9495;51.210;2.934;2023-03-01T09:57:42;10.53;;;3.33;;
18732;SDS011;9495;51.210;2.934;2023-03-01T10:00:22;6.70;;;3.07;;
18732;SDS011;9495;51.210;2.934;2023-03-01T10:03:03;5.20;;;3.20;;
18732;SDS011;9495;51.210;2.934;2023-03-01T10:05:54;5.63;;;3.20;;
18732;SDS011;9495;51.210;2.934;2023-03-01T10:08:28;4.93;;;3.07;;
18732;SDS011;9495;51.210;2.934;2023-03-01T10:11:03;7.80;;;2.53;;
18732;SDS011;9495;51.210;2.934;2023-03-01T10:13:37;5.07;;;2.87;;
18732;SDS011;9495;51.210;2.934;2023-03-01T10:16:17;4.33;;;3.30;;
18732;SDS011;9495;51.210;2.934;2023-03-01T10:18:51;8.17;;;3.63;;
18732;SDS011;9495;51.210;2.934;2023-03-01T10:21:23;6.60;;;3.77;;
18732;SDS011;9495;51.210;2.934;2023-03-01T10:24:04;4.07;;;2.77;;
18732;SDS011;9495;51.210;2.934;2023-03-01T10:26:42;8.27;;;4.03;;
18732;SDS011;9495;51.210;2.934;2023-03-01T10:29:15;10.37;;;3.77;;
18732;SDS011;9495;51.210;2.934;2023-03-01T10:31:45;7.23;;;3.60;;
18732;SDS011;9495;51.210;2.934;2023-03-01T10:34:16;5.73;;;3.73;;
18732;SDS011;9495;51.210;2.934;2023-03-01T10:36:47;6.07;;;4.10;;
18732;SDS011;9495;51.210;2.934;2023-03-01T10:39:17;9.87;;;4.57;;
18732;SDS011;9495;51.210;2.934;2023-03-01T10:41:52;6.27;;;4.60;;
18732;SDS011;9495;51.210;2.934;2023-03-01T10:44:35;7.47;;;3.73;;
18732;SDS011;9495;51.210;2.934;2023-03-01T10:47:17;6.17;;;3.93;;
18732;SDS011;9495;51.210;2.934;2023-03-01T10:49:55;5.40;;;3.87;;
18732;SDS011;9495;51.210;2.934;2023-03-01T10:52:30;8.90;;;4.57;;
18732;SDS011;9495;51.210;2.934;2023-03-01T10:55:00;4.50;;;3.33;;
18732;SDS011;9495;51.210;2.934;2023-03-01T10:57:45;4.60;;;2.90;;
18732;SDS011;9495;51.210;2.934;2023-03-01T11:00:19;6.30;;;3.40;;
18732;SDS011;9495;51.210;2.934;2023-03-01T11:03:01;4.60;;;3.17;;
18732;SDS011;9495;51.210;2.934;2023-03-01T11:05:30;8.47;;;4.53;;
18732;SDS011;9495;51.210;2.934;2023-03-01T11:08:00;5.03;;;3.40;;
18732;SDS011;9495;51.210;2.934;2023-03-01T11:10:30;5.63;;;3.20;;
18732;SDS011;9495;51.210;2.934;2023-03-01T11:13:07;6.33;;;4.30;;
18732;SDS011;9495;51.210;2.934;2023-03-01T11:15:40;5.17;;;3.87;;
18732;SDS011;9495;51.210;2.934;2023-03-01T11:18:21;5.90;;;4.00;;
18732;SDS011;9495;51.210;2.934;2023-03-01T11:21:06;8.27;;;3.90;;
18732;SDS011;9495;51.210;2.934;2023-03-01T11:23:36;6.40;;;3.93;;
18732;SDS011;9495;51.210;2.934;2023-03-01T11:26:07;8.27;;;4.27;;
18732;SDS011;9495;51.210;2.934;2023-03-01T11:28:38;6.00;;;4.10;;
18732;SDS011;9495;51.210;2.934;2023-03-01T11:31:09;7.40;;;4.37;;
18732;SDS011;9495;51.210;2.934;2023-03-01T11:33:42;9.53;;;4.53;;
18732;SDS011;9495;51.210;2.934;2023-03-01T11:36:17;5.63;;;3.90;;
18732;SDS011;9495;51.210;2.934;2023-03-01T11:38:53;11.40;;;4.30;;
18732;SDS011;9495;51.210;2.934;2023-03-01T11:41:23;8.63;;;4.60;;
18732;SDS011;9495;51.210;2.934;2023-03-01T11:43:57;7.57;;;4.03;;
18732;SDS011;9495;51.210;2.934;2023-03-01T11:46:40;5.60;;;3.67;;
18732;SDS011;9495;51.210;2.934;2023-03-01T11:49:28;4.53;;;3.33;;
18732;SDS011;9495;51.210;2.934;2023-03-01T11:52:14;4.77;;;3.93;;
18732;SDS011;9495;51.210;2.934;2023-03-01T11:54:55;9.10;;;4.27;;
18732;SDS011;9495;51.210;2.934;2023-03-01T11:57:37;6.50;;;3.60;;
18732;SDS011;9495;51.210;2.934;2023-03-01T12:00:23;5.90;;;4.20;;
18732;SDS011;9495;51.210;2.934;2023-03-01T12:06:04;7.10;;;4.20;;
18732;SDS011;9495;51.210;2.934;2023-03-01T12:08:53;5.43;;;4.30;;
18732;SDS011;9495;51.210;2.934;2023-03-01T12:11:34;7.47;;;4.63;;
18732;SDS011;9495;51.210;2.934;2023-03-01T12:14:18;5.47;;;4.40;;
18732;SDS011;9495;51.210;2.934;2023-03-01T12:17:00;8.50;;;4.07;;
18732;SDS011;9495;51.210;2.934;2023-03-01T12:19:48;8.17;;;4.60;;
18732;SDS011;9495;51.210;2.934;2023-03-01T12:22:30;6.27;;;4.93;;
18732;SDS011;9495;51.210;2.934;2023-03-01T12:25:08;8.60;;;4.80;;
18732;SDS011;9495;51.210;2.934;2023-03-01T12:27:58;6.03;;;4.40;;
18732;SDS011;9495;51.210;2.934;2023-03-01T12:30:38;12.07;;;5.20;;
18732;SDS011;9495;51.210;2.934;2023-03-01T12:33:17;5.87;;;3.90;;
18732;SDS011;9495;51.210;2.934;2023-03-01T12:36:06;8.27;;;5.10;;
18732;SDS011;9495;51.210;2.934;2023-03-01T12:38:55;7.63;;;4.13;;
18732;SDS011;9495;51.210;2.934;2023-03-01T12:44:30;7.67;;;5.20;;
18732;SDS011;9495;51.210;2.934;2023-03-01T12:47:16;6.10;;;5.03;;
18732;SDS011;9495;51.210;2.934;2023-03-01T12:49:54;7.10;;;4.70;;
18732;SDS011;9495;51.210;2.934;2023-03-01T12:52:27;7.93;;;4.73;;
18732;SDS011;9495;51.210;2.934;2023-03-01T12:55:06;7.37;;;5.30;;
18732;SDS011;9495;51.210;2.934;2023-03-01T12:57:51;7.30;;;4.90;;
18732;SDS011;9495;51.210;2.934;2023-03-01T13:00:28;10.20;;;5.70;;
18732;SDS011;9495;51.210;2.934;2023-03-01T13:03:06;8.50;;;5.23;;
18732;SDS011;9495;51.210;2.934;2023-03-01T13:05:45;6.90;;;5.50;;
18732;SDS011;9495;51.210;2.934;2023-03-01T13:08:25;8.33;;;5.37;;
18732;SDS011;9495;51.210;2.934;2023-03-01T13:11:01;8.80;;;5.50;;
18732;SDS011;9495;51.210;2.934;2023-03-01T13:13:32;7.53;;;5.23;;
18732;SDS011;9495;51.210;2.934;2023-03-01T13:19:06;11.27;;;6.20;;
18732;SDS011;9495;51.210;2.934;2023-03-01T13:21:41;8.53;;;5.53;;
18732;SDS011;9495;51.210;2.934;2023-03-01T13:24:24;10.47;;;6.07;;
18732;SDS011;9495;51.210;2.934;2023-03-01T13:27:11;9.30;;;6.73;;
18732;SDS011;9495;51.210;2.934;2023-03-01T13:29:52;9.53;;;6.27;;
18732;SDS011;9495;51.210;2.934;2023-03-01T13:32:22;10.83;;;7.00;;
18732;SDS011;9495;51.210;2.934;2023-03-01T13:41:04;10.13;;;6.27;;
18732;SDS011;9495;51.210;2.934;2023-03-01T13:43:36;13.67;;;8.83;;
18732;SDS011;9495;51.210;2.934;2023-03-01T13:46:09;11.40;;;7.67;;
18732;SDS011;9495;51.210;2.934;2023-03-01T13:48:42;11.07;;;7.97;;
18732;SDS011;9495;51.210;2.934;2023-03-01T13:51:13;11.50;;;7.30;;
18732;SDS011;9495;51.210;2.934;2023-03-01T13:53:42;14.87;;;8.10;;
18732;SDS011;9495;51.210;2.934;2023-03-01T13:56:12;13.13;;;8.10;;
18732;SDS011;9495;51.210;2.934;2023-03-01T13:58:46;13.73;;;8.07;;
18732;SDS011;9495;51.210;2.934;2023-03-01T14:01:23;12.13;;;8.07;;
18732;SDS011;9495;51.210;2.934;2023-03-01T14:03:53;10.17;;;7.50;;
18732;SDS011;9495;51.210;2.934;2023-03-01T14:06:23;14.83;;;8.73;;
18732;SDS011;9495;51.210;2.934;2023-03-01T14:09:00;12.63;;;8.37;;
18732;SDS011;9495;51.210;2.934;2023-03-01T14:14:36;12.20;;;7.87;;
18732;SDS011;9495;51.210;2.934;2023-03-01T14:20:09;14.10;;;8.57;;
18732;SDS011;9495;51.210;2.934;2023-03-01T14:22:42;14.20;;;8.80;;
18732;SDS011;9495;51.210;2.934;2023-03-01T14:25:25;14.07;;;9.37;;
18732;SDS011;9495;51.210;2.934;2023-03-01T14:27:57;12.43;;;7.67;;
18732;SDS011;9495;51.210;2.934;2023-03-01T14:30:33;15.20;;;10.60;;
18732;SDS011;9495;51.210;2.934;2023-03-01T14:33:05;12.97;;;8.40;;
18732;SDS011;9495;51.210;2.934;2023-03-01T14:35:51;15.80;;;10.03;;
18732;SDS011;9495;51.210;2.934;2023-03-01T14:38:22;14.27;;;10.60;;
18732;SDS011;9495;51.210;2.934;2023-03-01T14:40:56;14.23;;;8.40;;
18732;SDS011;9495;51.210;2.934;2023-03-01T14:43:26;17.37;;;10.80;;
18732;SDS011;9495;51.210;2.934;2023-03-01T14:45:57;15.57;;;11.13;;
18732;SDS011;9495;51.210;2.934;2023-03-01T14:48:26;17.60;;;11.50;;
18732;SDS011;9495;51.210;2.934;2023-03-01T14:50:55;13.93;;;11.07;;
18732;SDS011;9495;51.210;2.934;2023-03-01T14:53:26;15.23;;;10.47;;
18732;SDS011;9495;51.210;2.934;2023-03-01T14:56:14;18.63;;;12.23;;
18732;SDS011;9495;51.210;2.934;2023-03-01T14:58:44;20.17;;;12.97;;
18732;SDS011;9495;51.210;2.934;2023-03-01T15:01:15;19.63;;;13.60;;
18732;SDS011;9495;51.210;2.934;2023-03-01T15:03:45;19.37;;;11.73;;
18732;SDS011;9495;51.210;2.934;2023-03-01T15:06:15;17.93;;;13.40;;
18732;SDS011;9495;51.210;2.934;2023-03-01T15:08:47;24.60;;;15.87;;
18732;SDS011;9495;51.210;2.934;2023-03-01T15:11:18;23.07;;;14.37;;
18732;SDS011;9495;51.210;2.934;2023-03-01T15:13:51;20.70;;;13.67;;
18732;SDS011;9495;51.210;2.934;2023-03-01T15:16:22;18.93;;;13.30;;
18732;SDS011;9495;51.210;2.934;2023-03-01T15:18:53;22.10;;;13.60;;
18732;SDS011;9495;51.210;2.934;2023-03-01T15:21:23;16.53;;;10.60;;
18732;SDS011;9495;51.210;2.934;2023-03-01T15:23:56;20.50;;;13.27;;
18732;SDS011;9495;51.210;2.934;2023-03-01T15:26:39;15.17;;;11.43;;
18732;SDS011;9495;51.210;2.934;2023-03-01T15:29:12;21.37;;;13.93;;
18732;SDS011;9495;51.210;2.934;2023-03-01T15:31:55;19.43;;;14.93;;
18732;SDS011;9495;51.210;2.934;2023-03-01T15:34:25;21.20;;;13.83;;
18732;SDS011;9495;51.210;2.934;2023-03-01T15:36:55;19.60;;;13.70;;
18732;SDS011;9495;51.210;2.934;2023-03-01T15:42:10;22.17;;;15.60;;